Terminal Aerodrome Forecast
Issued by NWS

Home | Current Version | Previous Version | Text Only | Print | Product List | Glossary On
Versions: 1 2 3 4 5 6 7 8 9 10 11 12 13 14 15
000
FTUS43 KEAX 032300
TAFMKC
TAF
KMKC 032322Z 0400/0424 20016G24KT P6SM SCT200
     FM040100 19011KT P6SM SCT150
     FM040800 20009KT 6SM -SHRA VCTS BKN050CB
     FM041400 20011KT P6SM SCT050=

USA.gov is the U.S. government's official web portal to all federal, state and local government web resources and services.